Time;durP1;ratioP1;P1;durP2;ratioP2;P2;SDS_P1;SDS_P2;PMS_P1;PMS_P2;Temp;Humidity;BMP_temperature;BMP_pressure;BME280_temperature;BME280_humidity;BME280_pressure;Samples;Min_cycle;Max_cycle;Signal;HPM_P1;HPM_P2
2023/03/01 00:01:04;;;;;;;22.42;11.32;;;;;;;-5.66;100.00;98004.78;5073839;28;20120;-57
2023/03/01 00:03:32;;;;;;;22.20;11.82;;;;;;;-5.67;100.00;97995.22;5075724;28;20048;-57
2023/03/01 00:05:58;;;;;;;17.20;10.88;;;;;;;-5.72;100.00;98006.16;5080910;28;20514;-57
2023/03/01 00:08:26;;;;;;;23.48;12.00;;;;;;;-5.77;100.00;98003.94;5077784;28;20045;-58
2023/03/01 00:11:21;;;;;;;23.35;11.57;;;;;;;-5.72;100.00;98002.69;5077040;28;20157;-58
2023/03/01 00:13:50;;;;;;;19.48;11.45;;;;;;;-5.67;100.00;98003.97;5071908;28;20028;-56
2023/03/01 00:16:23;;;;;;;23.60;11.77;;;;;;;-5.52;100.00;97998.31;5074999;28;20052;-55
2023/03/01 00:18:57;;;;;;;22.00;13.27;;;;;;;-5.72;100.00;97992.97;5075742;28;20037;-57
2023/03/01 00:21:24;;;;;;;22.02;13.15;;;;;;;-5.80;100.00;97993.63;5075777;28;20135;-57
2023/03/01 00:23:53;;;;;;;20.83;11.27;;;;;;;-5.79;100.00;98002.41;5074881;28;20136;-58
2023/03/01 00:26:21;;;;;;;24.25;12.43;;;;;;;-5.76;100.00;98000.31;5075394;28;20082;-58
2023/03/01 00:28:48;;;;;;;23.88;12.60;;;;;;;-5.87;100.00;98008.31;5072235;28;20032;-58
2023/03/01 00:31:18;;;;;;;24.70;12.45;;;;;;;-5.86;100.00;97999.44;5075625;28;20044;-55
2023/03/01 00:33:45;;;;;;;26.65;12.80;;;;;;;-5.94;100.00;98012.47;5078668;28;20135;-57
2023/03/01 00:36:14;;;;;;;21.08;10.77;;;;;;;-5.90;100.00;98003.31;5077635;28;20490;-57
2023/03/01 00:38:43;;;;;;;21.52;12.00;;;;;;;-5.95;100.00;98008.97;5068791;28;20036;-57
2023/03/01 00:41:13;;;;;;;21.83;12.48;;;;;;;-6.05;100.00;98000.22;5069584;28;20040;-58
2023/03/01 00:43:40;;;;;;;23.88;12.10;;;;;;;-5.92;100.00;98006.09;5073553;28;20040;-57
2023/03/01 00:46:10;;;;;;;18.90;10.90;;;;;;;-5.94;100.00;98008.00;5071108;28;20043;-58
2023/03/01 00:48:37;;;;;;;21.33;10.93;;;;;;;-5.80;100.00;98001.53;5071839;28;20132;-55
2023/03/01 00:51:28;;;;;;;23.35;11.40;;;;;;;-5.88;100.00;98004.84;5070220;28;20101;-55
2023/03/01 00:53:58;;;;;;;23.77;11.45;;;;;;;-6.08;100.00;98001.28;5077359;28;20075;-56
2023/03/01 00:56:25;;;;;;;17.08;10.77;;;;;;;-6.01;100.00;97996.31;5079873;28;20105;-58
2023/03/01 00:58:51;;;;;;;24.45;11.48;;;;;;;-6.02;100.00;98000.75;5076615;28;20550;-57
2023/03/01 01:01:21;;;;;;;18.58;10.52;;;;;;;-5.36;100.00;97997.81;5069119;28;20048;-58
2023/03/01 01:03:56;;;;;;;22.50;11.60;;;;;;;-5.67;98.91;97997.84;5073859;28;20036;-58
2023/03/01 01:06:24;;;;;;;17.10;9.68;;;;;;;-5.78;99.42;97999.59;5073140;28;20044;-59
2023/03/01 01:08:52;;;;;;;22.27;10.90;;;;;;;-5.80;99.04;98000.69;5069887;28;20037;-58
2023/03/01 01:11:20;;;;;;;22.75;11.00;;;;;;;-5.97;99.47;97994.25;5074937;28;20394;-59
2023/03/01 01:13:48;;;;;;;20.25;10.85;;;;;;;-6.10;100.00;97991.84;5071560;28;20048;-56
2023/03/01 01:16:16;;;;;;;24.30;11.85;;;;;;;-6.36;100.00;97987.81;5064209;28;20608;-58
2023/03/01 01:18:43;;;;;;;17.63;10.30;;;;;;;-6.55;100.00;97992.00;5065291;28;20056;-57
2023/03/01 01:21:12;;;;;;;19.73;10.80;;;;;;;-6.54;100.00;97987.53;5072210;28;20078;-59
2023/03/01 01:23:40;;;;;;;20.73;10.77;;;;;;;-6.55;100.00;97991.16;5068087;28;20048;-58
2023/03/01 01:26:10;;;;;;;20.88;10.23;;;;;;;-6.47;100.00;97987.88;5067030;28;20111;-58
2023/03/01 01:28:36;;;;;;;21.92;10.70;;;;;;;-6.41;100.00;97985.56;5070313;28;20120;-58
2023/03/01 01:31:04;;;;;;;23.13;11.25;;;;;;;-6.41;100.00;97979.47;5071516;28;20075;-58
2023/03/01 01:33:31;;;;;;;25.58;11.52;;;;;;;-6.57;100.00;97979.88;5070621;28;20048;-58
2023/03/01 01:35:58;;;;;;;19.38;9.75;;;;;;;-6.55;100.00;97985.88;5070182;28;20036;-59
2023/03/01 01:38:24;;;;;;;22.70;10.05;;;;;;;-6.65;100.00;97975.28;5074125;28;20287;-56
2023/03/01 01:40:51;;;;;;;28.27;11.25;;;;;;;-6.57;100.00;97970.19;5079186;28;20074;-58
2023/03/01 01:43:24;;;;;;;20.87;11.60;;;;;;;-6.41;100.00;97961.03;5076741;28;20135;-58
2023/03/01 01:45:56;;;;;;;21.15;10.32;;;;;;;-6.46;100.00;97966.66;5076876;28;20039;-57
2023/03/01 01:48:40;;;;;;;22.60;11.85;;;;;;;-6.53;100.00;97966.34;5077624;28;20036;-57
2023/03/01 01:51:11;;;;;;;17.80;9.27;;;;;;;-6.48;100.00;97962.50;5072061;28;20044;-55
2023/03/01 01:53:39;;;;;;;24.65;11.32;;;;;;;-6.42;100.00;97960.19;5074608;28;20072;-57
2023/03/01 01:56:11;;;;;;;20.52;11.63;;;;;;;-6.46;100.00;97957.91;5069002;28;20052;-57
2023/03/01 01:58:40;;;;;;;22.43;11.57;;;;;;;-6.55;100.00;97959.53;5074219;28;20094;-58
2023/03/01 02:01:07;;;;;;;24.30;12.23;;;;;;;-6.47;100.00;97956.25;5070271;28;20287;-56
2023/03/01 02:03:37;;;;;;;27.40;11.05;;;;;;;-6.45;100.00;97955.16;5074343;28;20055;-58
2023/03/01 02:06:11;;;;;;;22.48;10.20;;;;;;;-6.34;100.00;97951.59;5078143;28;20048;-56
2023/03/01 02:08:41;;;;;;;22.38;10.43;;;;;;;-6.36;100.00;97944.81;5077441;28;20571;-58
2023/03/01 02:11:09;;;;;;;20.75;9.25;;;;;;;-6.51;100.00;97945.16;5075655;28;20621;-57
2023/03/01 02:13:36;;;;;;;18.80;10.32;;;;;;;-6.47;100.00;97941.28;5077334;28;20109;-58
2023/03/01 02:16:08;;;;;;;20.45;9.68;;;;;;;-6.42;100.00;97943.50;5071080;28;20581;-57
2023/03/01 02:18:34;;;;;;;;;;;;;;;-6.58;100.00;97938.72;5074324;28;20036;-58
2023/03/01 02:21:38;;;;;;;19.02;10.77;;;;;;;-6.49;100.00;97934.47;5077200;28;19924;-58
2023/03/01 02:24:28;;;;;;;19.25;10.10;;;;;;;-6.64;100.00;97928.69;5081083;28;20044;-57
2023/03/01 02:26:56;;;;;;;18.83;9.63;;;;;;;-6.59;100.00;97921.25;5068314;28;20049;-58
2023/03/01 02:29:24;;;;;;;20.60;10.95;;;;;;;-6.56;100.00;97913.91;5068274;28;20036;-58
2023/03/01 02:31:56;;;;;;;19.85;10.40;;;;;;;-6.67;100.00;97914.81;5072655;28;20050;-58
2023/03/01 02:34:26;;;;;;;22.27;10.93;;;;;;;-6.61;100.00;97915.25;5074608;28;20127;-57
2023/03/01 02:36:57;;;;;;;23.67;12.30;;;;;;;-6.61;100.00;97909.97;5077820;28;20035;-57
2023/03/01 02:39:28;;;;;;;22.20;11.18;;;;;;;-6.73;100.00;97906.59;5067975;28;20045;-54
2023/03/01 02:41:57;;;;;;;21.60;10.32;;;;;;;-6.69;100.00;97908.00;5073444;28;20046;-58
2023/03/01 02:44:24;;;;;;;23.23;10.50;;;;;;;-6.64;100.00;97905.00;5071910;28;20131;-56
2023/03/01 02:46:54;;;;;;;18.77;10.82;;;;;;;-6.73;100.00;97904.81;5076283;28;20044;-56
2023/03/01 02:49:30;;;;;;;21.05;10.60;;;;;;;-6.73;100.00;97902.16;5072472;28;20044;-57
2023/03/01 02:52:06;;;;;;;22.58;11.30;;;;;;;-6.51;100.00;97907.41;5068851;28;20123;-57
2023/03/01 02:54:38;;;;;;;23.08;11.90;;;;;;;-6.49;100.00;97893.13;5075688;28;20044;-58
2023/03/01 02:57:05;;;;;;;21.92;11.73;;;;;;;-6.46;100.00;97884.97;5069884;28;20466;-57
2023/03/01 02:59:39;;;;;;;20.15;10.93;;;;;;;-6.36;100.00;97889.47;5056125;28;20037;-56
2023/03/01 03:02:35;;;;;;;23.42;12.18;;;;;;;-6.17;100.00;97897.47;5068799;28;20420;-55
2023/03/01 03:05:17;;;;;;;22.50;11.57;;;;;;;-5.92;100.00;97886.56;5070879;28;20411;-55
2023/03/01 03:07:46;;;;;;;20.13;11.63;;;;;;;-5.86;100.00;97886.03;5075813;28;20036;-55
2023/03/01 03:10:16;;;;;;;23.60;10.95;;;;;;;-5.78;100.00;97888.00;5075899;28;20036;-55
2023/03/01 03:12:42;;;;;;;20.23;10.60;;;;;;;-5.71;100.00;97885.63;5074271;28;20102;-56
2023/03/01 03:15:12;;;;;;;24.92;12.23;;;;;;;-5.54;100.00;97886.78;5070858;28;20442;-55
2023/03/01 03:17:41;;;;;;;26.27;10.80;;;;;;;-5.52;100.00;97880.41;5081423;28;20036;-57
2023/03/01 03:20:11;;;;;;;23.35;11.20;;;;;;;-5.46;100.00;97879.00;5081787;28;20040;-54
2023/03/01 03:22:39;;;;;;;21.27;10.93;;;;;;;-5.35;100.00;97876.25;5070927;28;20119;-57
2023/03/01 03:25:10;;;;;;;22.23;10.77;;;;;;;-5.35;100.00;97868.34;5077596;28;20044;-57
2023/03/01 03:27:42;;;;;;;22.20;12.63;;;;;;;-5.33;100.00;97870.00;5070193;28;20051;-54
2023/03/01 03:30:13;;;;;;;21.45;11.48;;;;;;;-5.32;100.00;97869.84;5081897;28;20040;-56
2023/03/01 03:32:41;;;;;;;19.85;11.23;;;;;;;-5.23;100.00;97863.75;5081188;28;20040;-57
2023/03/01 03:35:09;;;;;;;19.33;10.30;;;;;;;-5.14;100.00;97863.88;5081777;28;20055;-56
2023/03/01 03:40:30;;;;;;;20.42;10.13;;;;;;;-4.97;100.00;97865.00;5079335;28;20507;-56
2023/03/01 03:42:57;;;;;;;19.08;10.35;;;;;;;-4.86;100.00;97862.19;5083047;28;20040;-57
2023/03/01 03:45:24;;;;;;;21.63;10.55;;;;;;;-4.93;100.00;97861.09;5076428;28;20074;-55
2023/03/01 03:47:50;;;;;;;21.55;12.15;;;;;;;-4.93;100.00;97858.47;5073037;28;20040;-55
2023/03/01 03:50:17;;;;;;;23.27;10.80;;;;;;;-4.80;100.00;97852.03;5073413;28;20127;-54
2023/03/01 03:52:44;;;;;;;18.95;10.32;;;;;;;-4.61;100.00;97862.56;5077203;28;20118;-57
2023/03/01 03:55:12;;;;;;;22.40;11.05;;;;;;;-4.57;99.93;97858.66;5074271;28;20478;-56
2023/03/01 03:57:41;;;;;;;25.58;11.85;;;;;;;-4.62;100.00;97860.91;5075028;28;20106;-58
2023/03/01 04:00:14;;;;;;;19.63;10.63;;;;;;;-4.34;100.00;97852.19;5072506;28;20033;-55
2023/03/01 04:02:42;;;;;;;19.05;10.75;;;;;;;-4.39;99.45;97849.97;5067430;28;20072;-56
2023/03/01 04:05:12;;;;;;;24.23;11.00;;;;;;;-4.38;99.82;97845.53;5083968;28;20040;-56
2023/03/01 04:07:38;;;;;;;20.33;11.52;;;;;;;-4.43;99.66;97840.66;5085710;28;20047;-56
2023/03/01 04:10:09;;;;;;;25.23;11.73;;;;;;;-4.29;100.00;97836.72;5079146;28;20427;-57
2023/03/01 04:12:35;;;;;;;23.35;10.50;;;;;;;-4.32;99.98;97832.56;5080374;28;20599;-57
2023/03/01 04:15:12;;;;;;;23.85;13.05;;;;;;;-4.20;100.00;97835.03;5075594;28;20040;-55
2023/03/01 04:17:40;;;;;;;18.73;10.05;;;;;;;-4.08;100.00;97836.50;5064843;28;20043;-55
2023/03/01 04:20:11;;;;;;;22.02;12.18;;;;;;;-4.04;99.62;97834.38;5073618;28;20036;-56
2023/03/01 04:22:39;;;;;;;;;;;;;;;-4.06;98.56;97831.03;5065616;28;20058;-52
2023/03/01 04:25:06;;;;;;;19.48;10.73;;;;;;;-4.07;100.00;97832.03;5071861;28;19920;-55
2023/03/01 04:27:34;;;;;;;23.63;9.80;;;;;;;-3.97;100.00;97834.63;5072583;28;20044;-54
2023/03/01 04:30:02;;;;;;;18.48;10.50;;;;;;;-3.75;99.34;97829.91;5073966;28;20067;-55
2023/03/01 04:32:29;;;;;;;20.52;10.60;;;;;;;-3.80;97.83;97825.88;5074697;28;20072;-55
2023/03/01 04:34:56;;;;;;;18.98;11.20;;;;;;;-4.05;99.97;97825.59;5075377;28;20050;-55
2023/03/01 04:37:23;;;;;;;20.20;10.95;;;;;;;-3.97;100.00;97824.03;5071542;28;20075;-56
2023/03/01 04:39:50;;;;;;;22.55;9.95;;;;;;;-3.94;100.00;97827.22;5075953;28;20032;-57
2023/03/01 04:42:17;;;;;;;21.35;11.38;;;;;;;-3.75;99.72;97822.81;5072796;28;20039;-54
2023/03/01 04:44:45;;;;;;;23.70;11.93;;;;;;;-3.81;99.83;97818.09;5071896;28;20123;-56
2023/03/01 04:47:12;;;;;;;23.90;12.38;;;;;;;-3.71;100.00;97823.34;5065275;28;20044;-55
2023/03/01 04:49:38;;;;;;;22.35;11.68;;;;;;;-3.73;99.66;97820.03;5066336;28;20066;-56
2023/03/01 04:52:05;;;;;;;22.30;12.77;;;;;;;-3.86;100.00;97836.25;5072839;28;20135;-57
2023/03/01 04:54:33;;;;;;;23.13;11.57;;;;;;;-3.83;100.00;97838.59;5078273;28;20412;-58
2023/03/01 04:57:01;;;;;;;23.30;12.20;;;;;;;-3.85;100.00;97830.81;5072553;28;20044;-57
2023/03/01 04:59:28;;;;;;;21.70;10.98;;;;;;;-3.83;100.00;97831.47;5069139;28;20029;-55
2023/03/01 05:01:55;;;;;;;23.23;12.35;;;;;;;-3.82;100.00;97827.88;5077583;28;20446;-58
2023/03/01 05:04:23;;;;;;;23.88;12.15;;;;;;;-3.85;100.00;97830.81;5080815;28;20046;-58
2023/03/01 05:06:50;;;;;;;21.58;11.15;;;;;;;-3.81;100.00;97818.94;5069468;28;20047;-57
2023/03/01 05:09:16;;;;;;;23.63;12.75;;;;;;;-3.74;100.00;97826.28;5073494;28;20515;-58
2023/03/01 05:11:43;;;;;;;21.95;11.68;;;;;;;-3.32;100.00;97817.75;5076785;28;20053;-58
2023/03/01 05:14:10;;;;;;;23.33;11.88;;;;;;;-3.05;96.65;97813.34;5065871;28;20106;-58
2023/03/01 05:16:37;;;;;;;23.83;12.35;;;;;;;-2.91;96.24;97824.38;5071473;28;20552;-58
2023/03/01 05:19:14;;;;;;;21.98;12.93;;;;;;;-2.97;95.42;97822.31;5073892;28;20037;-58
2023/03/01 05:24:30;;;;;;;30.08;16.65;;;;;;;-3.03;95.48;97821.13;5072728;28;20066;-57
2023/03/01 05:26:56;;;;;;;29.65;15.85;;;;;;;-3.09;95.23;97819.09;5078245;28;20052;-58
2023/03/01 05:29:25;;;;;;;30.42;17.38;;;;;;;-3.15;96.12;97821.38;5071931;28;20121;-57
2023/03/01 05:31:57;;;;;;;28.52;14.93;;;;;;;-3.16;96.05;97819.69;5068189;28;20102;-58
2023/03/01 05:34:26;;;;;;;25.02;13.80;;;;;;;-3.11;96.26;97819.25;5072791;28;20044;-58
2023/03/01 05:36:53;;;;;;;20.77;12.02;;;;;;;-3.13;94.77;97819.41;5082680;28;20717;-55
2023/03/01 05:39:22;;;;;;;21.80;11.98;;;;;;;-3.18;95.19;97818.19;5065191;28;20082;-57
2023/03/01 05:41:52;;;;;;;22.42;12.73;;;;;;;-3.25;95.70;97817.97;5068604;28;20120;-55
2023/03/01 05:44:20;;;;;;;22.60;12.35;;;;;;;-3.11;96.89;97819.25;5064950;28;20044;-58
2023/03/01 05:46:46;;;;;;;21.67;11.65;;;;;;;-3.15;94.97;97825.84;5067890;28;20036;-58
2023/03/01 05:49:13;;;;;;;22.40;11.73;;;;;;;-3.14;95.12;97824.84;5080763;28;20127;-57
2023/03/01 05:51:41;;;;;;;22.20;12.15;;;;;;;-3.11;95.13;97823.69;5081130;28;20718;-57
2023/03/01 05:54:09;;;;;;;21.48;11.20;;;;;;;-3.11;94.16;97823.69;5075632;28;20415;-58
2023/03/01 05:56:36;;;;;;;23.40;11.68;;;;;;;-3.03;94.80;97829.06;5069937;28;20110;-56
2023/03/01 05:59:04;;;;;;;19.55;11.18;;;;;;;-3.13;93.58;97815.94;5078506;28;20642;-56
2023/03/01 06:01:32;;;;;;;23.83;12.13;;;;;;;-3.11;93.84;97816.59;5079347;28;20058;-55
2023/03/01 06:03:59;;;;;;;20.85;10.68;;;;;;;-3.03;94.73;97813.16;5084150;28;20692;-56
2023/03/01 06:06:25;;;;;;;23.85;11.95;;;;;;;-3.07;94.73;97819.75;5078504;28;20067;-55
2023/03/01 06:08:54;;;;;;;23.27;10.70;;;;;;;-3.04;94.18;97817.66;5077838;28;20041;-57
2023/03/01 06:11:21;;;;;;;23.75;12.30;;;;;;;-3.07;93.15;97819.75;5064518;28;20123;-54
2023/03/01 06:13:48;;;;;;;22.75;10.75;;;;;;;-3.17;93.73;97810.09;5074833;28;20049;-52
2023/03/01 06:16:14;;;;;;;21.58;11.43;;;;;;;-3.08;93.34;97813.66;5068403;28;20063;-54
2023/03/01 06:18:41;;;;;;;21.42;11.27;;;;;;;-3.06;92.14;97813.50;5068618;28;20142;-53
2023/03/01 06:21:08;;;;;;;21.75;11.57;;;;;;;-3.08;93.34;97815.44;5077915;28;20051;-54
2023/03/01 06:23:35;;;;;;;21.00;12.60;;;;;;;-3.06;92.35;97819.59;5067843;28;20650;-56
2023/03/01 06:26:06;;;;;;;24.23;11.10;;;;;;;-3.05;92.58;97828.41;5073859;28;20040;-55
2023/03/01 06:28:33;;;;;;;21.10;12.00;;;;;;;-3.01;91.59;97824.47;5067897;28;20072;-54
2023/03/01 06:30:59;;;;;;;22.05;11.05;;;;;;;-3.15;92.42;97821.38;5078539;28;20105;-57
2023/03/01 06:33:26;;;;;;;21.13;11.80;;;;;;;-3.07;91.88;97820.59;5068559;28;20653;-51
2023/03/01 06:35:56;;;;;;;19.92;10.75;;;;;;;-3.07;91.33;97820.59;5071234;28;20510;-56
2023/03/01 06:38:23;;;;;;;24.05;11.38;;;;;;;-3.13;92.50;97823.88;5072116;28;20062;-56
2023/03/01 06:40:54;;;;;;;20.50;10.32;;;;;;;-3.10;92.46;97815.59;5068218;28;20415;-56
2023/03/01 06:43:21;;;;;;;26.10;12.37;;;;;;;-3.01;91.96;97814.72;5063842;28;20048;-57
2023/03/01 06:45:48;;;;;;;19.83;10.63;;;;;;;-3.03;91.66;97816.66;5072450;28;20102;-54
2023/03/01 06:48:14;;;;;;;23.30;11.73;;;;;;;-2.88;90.29;97816.09;5069734;28;20112;-55
2023/03/01 06:50:41;;;;;;;21.15;10.88;;;;;;;-2.88;90.27;97811.63;5082456;28;20133;-57
2023/03/01 06:53:07;;;;;;;20.38;11.45;;;;;;;-2.94;90.38;97817.56;5072951;28;20076;-54
2023/03/01 06:55:34;;;;;;;22.17;11.43;;;;;;;-2.87;90.30;97812.47;5071648;28;20194;-55
2023/03/01 06:58:02;;;;;;;24.42;13.25;;;;;;;-3.05;91.16;97818.66;5079137;28;20051;-56
2023/03/01 07:00:29;;;;;;;28.52;14.27;;;;;;;-3.19;91.61;97817.38;5073793;28;20114;-55
2023/03/01 07:02:58;;;;;;;19.95;11.80;;;;;;;-3.25;91.91;97809.22;5066175;28;20040;-57
2023/03/01 07:05:25;;;;;;;47.47;24.80;;;;;;;-3.22;91.86;97803.59;5071264;28;20698;-55
2023/03/01 07:07:53;;;;;;;23.33;11.52;;;;;;;-3.23;92.02;97805.41;5072760;28;20613;-55
2023/03/01 07:10:20;;;;;;;23.17;13.35;;;;;;;-3.25;92.69;97801.25;5080365;28;20040;-56
2023/03/01 07:12:46;;;;;;;23.25;12.40;;;;;;;-3.28;92.12;97805.06;5077688;28;20036;-54
2023/03/01 07:15:14;;;;;;;26.83;16.58;;;;;;;-3.30;92.65;97809.66;5081654;28;20072;-55
2023/03/01 07:17:41;;;;;;;32.00;13.93;;;;;;;-3.46;93.82;97807.69;5072193;28;20109;-55
2023/03/01 07:20:08;;;;;;;25.05;12.73;;;;;;;-3.35;93.87;97798.69;5076998;28;20590;-55
2023/03/01 07:22:35;;;;;;;29.35;13.52;;;;;;;-3.24;93.71;97800.28;5081800;28;20146;-55
2023/03/01 07:25:01;;;;;;;20.58;11.57;;;;;;;-3.20;93.04;97797.16;5084341;28;20072;-50
2023/03/01 07:27:28;;;;;;;27.33;12.55;;;;;;;-3.17;93.86;97796.03;5076362;28;20056;-54
2023/03/01 07:29:54;;;;;;;22.60;12.02;;;;;;;-3.08;92.59;97796.91;5081597;28;20032;-56
2023/03/01 07:32:20;;;;;;;23.00;13.35;;;;;;;-3.15;92.64;97786.09;5068797;28;20533;-55
2023/03/01 07:34:47;;;;;;;24.25;11.60;;;;;;;-3.08;92.96;97788.97;5076879;28;20560;-54
2023/03/01 07:37:14;;;;;;;26.60;12.95;;;;;;;-3.09;93.10;97788.16;5074481;28;20224;-54
2023/03/01 07:39:40;;;;;;;23.17;12.30;;;;;;;-3.02;92.86;97788.34;5073807;28;20043;-55
2023/03/01 07:42:07;;;;;;;23.30;12.23;;;;;;;-3.00;93.23;97783.72;5081447;28;20411;-54
2023/03/01 07:44:34;;;;;;;24.77;11.88;;;;;;;-2.95;92.64;97783.28;5077056;28;20435;-55
2023/03/01 07:47:00;;;;;;;26.10;12.40;;;;;;;-2.84;92.71;97780.34;5077556;28;20123;-57
2023/03/01 07:49:27;;;;;;;25.55;12.55;;;;;;;-2.75;91.64;97773.28;5080811;28;20101;-57
2023/03/01 07:51:54;;;;;;;22.95;13.02;;;;;;;-2.67;91.73;97775.97;5078912;28;20047;-51
2023/03/01 07:54:20;;;;;;;21.05;11.40;;;;;;;-2.57;89.94;97783.00;5081800;28;20540;-54
2023/03/01 07:56:47;;;;;;;26.35;12.77;;;;;;;-2.61;91.38;97774.53;5085506;28;20043;-56
2023/03/01 07:59:13;;;;;;;31.38;12.98;;;;;;;-2.65;91.26;97765.22;5077412;28;20400;-56
2023/03/01 08:01:40;;;;;;;25.38;11.90;;;;;;;-2.60;91.44;97770.88;5084032;28;20596;-52
2023/03/01 08:04:08;;;;;;;25.75;12.45;;;;;;;-2.53;91.15;97766.63;5072015;28;20131;-52
2023/03/01 08:06:36;;;;;;;25.88;12.82;;;;;;;-2.40;90.37;97760.84;5075774;28;20577;-57
2023/03/01 08:09:02;;;;;;;20.55;11.68;;;;;;;-2.36;90.09;97766.69;5073377;28;20117;-55
2023/03/01 08:11:29;;;;;;;23.52;14.13;;;;;;;-2.32;90.60;97760.06;5069141;28;20047;-54
2023/03/01 08:13:57;;;;;;;22.92;12.20;;;;;;;-2.15;90.31;97766.25;5074592;28;20437;-54
2023/03/01 08:16:23;;;;;;;23.65;12.23;;;;;;;-2.09;88.66;97770.09;5080739;28;20047;-56
2023/03/01 08:18:50;;;;;;;22.27;12.27;;;;;;;-2.09;88.10;97772.75;5080227;28;20410;-53
2023/03/01 08:21:18;;;;;;;20.17;11.38;;;;;;;-1.88;87.84;97763.53;5076084;28;20481;-57
2023/03/01 08:23:44;;;;;;;22.52;12.82;;;;;;;-1.91;87.07;97766.50;5072909;28;20036;-54
2023/03/01 08:26:18;;;;;;;24.95;12.68;;;;;;;-1.67;86.14;97770.22;5080054;28;20133;-55
2023/03/01 08:28:46;;;;;;;28.17;11.65;;;;;;;-1.78;86.29;97763.38;5072005;28;20187;-57
2023/03/01 08:31:26;;;;;;;24.15;12.57;;;;;;;-1.73;85.46;97763.72;5077417;28;20040;-54
2023/03/01 08:33:57;;;;;;;23.25;12.30;;;;;;;-1.70;85.74;97766.88;5068044;28;20104;-55
2023/03/01 08:36:26;;;;;;;24.10;11.98;;;;;;;-1.81;86.46;97763.72;5073052;28;20604;-54
2023/03/01 08:38:53;;;;;;;22.67;11.95;;;;;;;-1.70;86.17;97758.06;5076030;28;20032;-53
2023/03/01 08:41:20;;;;;;;24.10;11.90;;;;;;;-1.67;85.78;97759.59;5068761;28;20684;-54
2023/03/01 08:43:47;;;;;;;24.20;14.05;;;;;;;-1.61;86.85;97762.41;5073533;28;20444;-54
2023/03/01 08:46:13;;;;;;;27.60;13.07;;;;;;;-1.53;85.87;97750.13;5075449;28;20498;-56
2023/03/01 08:48:42;;;;;;;30.15;13.35;;;;;;;-1.49;85.86;97751.44;5071705;28;20041;-54
2023/03/01 08:51:15;;;;;;;29.13;12.43;;;;;;;-1.37;84.85;97754.63;5082535;28;20123;-55
2023/03/01 08:53:43;;;;;;;26.20;14.10;;;;;;;-1.41;84.72;97753.31;5076201;28;20695;-55
2023/03/01 08:56:10;;;;;;;20.10;11.63;;;;;;;-1.29;83.81;97748.47;5074663;28;20039;-54
2023/03/01 08:58:39;;;;;;;28.38;13.90;;;;;;;-1.27;84.22;97746.47;5073936;28;20544;-57
2023/03/01 09:01:14;;;;;;;26.50;13.45;;;;;;;-1.10;83.47;97748.13;5066086;28;20041;-56
2023/03/01 09:03:42;;;;;;;25.30;13.75;;;;;;;-1.19;83.71;97742.00;5070546;28;20036;-55
2023/03/01 09:06:10;;;;;;;23.88;12.30;;;;;;;-1.20;83.51;97744.81;5083327;28;20104;-56
2023/03/01 09:08:38;;;;;;;27.58;14.05;;;;;;;-1.11;83.59;97737.69;5073876;28;20102;-57
2023/03/01 09:11:06;;;;;;;26.40;13.25;;;;;;;-1.15;83.47;97736.34;5068043;28;20551;-55
2023/03/01 09:13:34;;;;;;;24.38;13.25;;;;;;;-1.02;83.41;97723.38;5065587;28;20670;-53
2023/03/01 09:16:02;;;;;;;20.35;11.98;;;;;;;-0.94;83.32;97725.19;5075230;28;20090;-52
2023/03/01 09:18:29;;;;;;;26.73;15.60;;;;;;;-0.95;82.39;97720.88;5070176;28;20174;-54
2023/03/01 09:21:08;;;;;;;25.90;13.93;;;;;;;-0.84;81.99;97717.03;5074553;28;20043;-54
2023/03/01 09:23:36;;;;;;;27.13;13.85;;;;;;;-0.68;81.33;97722.31;5071961;28;20075;-53
2023/03/01 09:26:03;;;;;;;24.85;13.25;;;;;;;-0.42;80.95;97718.53;5068554;28;20036;-51
2023/03/01 09:28:29;;;;;;;24.40;12.35;;;;;;;-0.32;78.76;97704.19;5079674;28;20059;-55
2023/03/01 09:31:00;;;;;;;23.13;13.32;;;;;;;-0.23;79.20;97708.47;5077877;28;20119;-55
2023/03/01 09:33:29;;;;;;;24.38;14.30;;;;;;;-0.17;79.09;97702.47;5071774;28;20060;-55
2023/03/01 09:35:57;;;;;;;29.55;15.50;;;;;;;0.01;78.24;97700.53;5072440;28;20442;-54
2023/03/01 09:38:24;;;;;;;26.58;12.85;;;;;;;-0.02;77.33;97696.38;5069453;28;20523;-53
2023/03/01 09:40:53;;;;;;;21.27;12.38;;;;;;;0.03;76.48;97695.88;5074961;28;20142;-56
2023/03/01 09:43:45;;;;;;;27.70;14.32;;;;;;;0.21;76.02;97691.06;5075625;28;20123;-55
2023/03/01 09:46:16;;;;;;;25.05;13.77;;;;;;;0.41;74.86;97695.09;5073482;28;20731;-55
2023/03/01 09:48:48;;;;;;;23.77;13.77;;;;;;;0.44;73.61;97687.56;5072068;28;20043;-56
2023/03/01 09:51:22;;;;;;;25.65;13.73;;;;;;;0.57;73.52;97691.47;5076150;28;20047;-51
2023/03/01 09:53:49;;;;;;;21.10;10.85;;;;;;;0.64;72.21;97692.41;5070738;28;20044;-53
2023/03/01 09:56:22;;;;;;;24.40;14.45;;;;;;;0.71;72.13;97687.19;5077308;28;20044;-52
2023/03/01 09:58:53;;;;;;;20.33;12.45;;;;;;;0.68;72.20;97692.88;5075701;28;20048;-56
2023/03/01 10:01:38;;;;;;;22.70;13.82;;;;;;;0.61;73.29;97690.94;5068453;28;20146;-56
2023/03/01 10:04:11;;;;;;;22.15;12.73;;;;;;;0.70;72.06;97680.19;5069758;28;20051;-57
2023/03/01 10:06:44;;;;;;;26.50;14.90;;;;;;;0.64;72.38;97689.75;5071967;28;20044;-55
2023/03/01 10:09:15;;;;;;;20.83;12.23;;;;;;;0.76;72.34;97679.47;5078764;28;20055;-55
2023/03/01 10:11:49;;;;;;;23.48;12.50;;;;;;;0.89;72.70;97677.00;5070415;28;20047;-55
2023/03/01 10:14:25;;;;;;;20.83;12.55;;;;;;;1.01;71.33;97679.22;5071074;28;20095;-57
2023/03/01 10:16:58;;;;;;;25.13;13.85;;;;;;;1.04;70.49;97684.19;5075539;28;20072;-55
2023/03/01 10:19:37;;;;;;;22.10;11.60;;;;;;;1.13;70.42;97676.94;5075731;28;20048;-55
2023/03/01 10:22:28;;;;;;;25.75;15.30;;;;;;;1.08;70.18;97668.66;5073347;28;20040;-52
2023/03/01 10:24:58;;;;;;;21.38;12.13;;;;;;;1.27;69.36;97667.28;5079436;28;20032;-55
2023/03/01 10:27:41;;;;;;;23.65;13.95;;;;;;;1.14;69.06;97662.59;5081346;28;20101;-56
2023/03/01 10:30:15;;;;;;;26.10;14.68;;;;;;;0.93;69.59;97657.97;5069116;28;20581;-55
2023/03/01 10:32:44;;;;;;;28.45;14.00;;;;;;;1.03;70.51;97666.53;5071416;28;20543;-56
2023/03/01 10:35:18;;;;;;;22.00;12.10;;;;;;;1.23;69.19;97660.66;5071348;28;20411;-56
2023/03/01 10:38:07;;;;;;;20.90;12.02;;;;;;;1.37;68.98;97659.78;5071829;28;20664;-57
2023/03/01 10:40:35;;;;;;;23.42;13.85;;;;;;;1.53;69.15;97655.28;5075014;28;20043;-57
2023/03/01 10:43:05;;;;;;;25.40;12.55;;;;;;;1.68;67.81;97656.09;5069857;28;20118;-51
2023/03/01 10:45:37;;;;;;;26.20;14.57;;;;;;;1.64;67.68;97648.63;5079411;28;20048;-54
2023/03/01 10:48:36;;;;;;;24.20;13.77;;;;;;;1.58;67.07;97654.72;5068415;28;20067;-55
2023/03/01 10:51:02;;;;;;;28.80;13.27;;;;;;;1.44;67.52;97654.56;5028981;28;20056;-55
2023/03/01 10:53:40;;;;;;;24.80;13.68;;;;;;;1.66;68.45;97652.75;5072671;28;20076;-57
2023/03/01 10:56:08;;;;;;;19.88;12.45;;;;;;;1.67;67.09;97648.25;5073535;28;20093;-55
2023/03/01 10:58:37;;;;;;;23.83;12.85;;;;;;;1.71;66.61;97644.22;5072704;28;20094;-55
2023/03/01 11:01:26;;;;;;;24.05;13.07;;;;;;;1.71;67.41;97636.19;5065596;28;20118;-55
2023/03/01 11:04:05;;;;;;;23.75;11.90;;;;;;;1.80;66.36;97636.88;5074426;28;20055;-52
2023/03/01 11:06:37;;;;;;;26.58;14.95;;;;;;;1.74;66.82;97630.50;5076982;28;20046;-55
2023/03/01 11:09:21;;;;;;;21.67;13.50;;;;;;;1.79;66.73;97624.56;5067884;28;20040;-55
2023/03/01 11:11:55;;;;;;;23.17;12.73;;;;;;;1.95;66.05;97618.97;5073121;28;20036;-56
2023/03/01 11:14:35;;;;;;;21.98;12.63;;;;;;;2.05;65.87;97616.00;5074152;28;20054;-54
2023/03/01 11:17:13;;;;;;;26.20;13.18;;;;;;;2.14;65.99;97616.69;5072709;28;20039;-58
2023/03/01 11:19:40;;;;;;;25.08;14.63;;;;;;;2.12;65.07;97604.53;5070356;28;20048;-53
2023/03/01 11:22:16;;;;;;;22.88;15.15;;;;;;;2.17;65.56;97599.44;5071727;28;20051;-54
2023/03/01 11:24:55;;;;;;;22.92;13.00;;;;;;;2.36;63.95;97602.50;5075767;28;20127;-53
2023/03/01 11:27:41;;;;;;;26.20;13.10;;;;;;;2.47;64.42;97593.97;5070539;28;20623;-55
2023/03/01 11:30:41;;;;;;;23.38;12.93;;;;;;;2.44;64.26;97589.00;5072448;28;20519;-56
2023/03/01 11:33:07;;;;;;;28.52;14.63;;;;;;;2.38;63.57;97595.09;5073304;28;20043;-54
2023/03/01 11:35:37;;;;;;;21.48;13.20;;;;;;;2.64;64.97;97588.28;5073218;28;20052;-56